sensor_id;sensor_type;location;lat;lon;timestamp;P1;durP1;ratioP1;P2;durP2;ratioP2
53072;SDS011;38955;48.916;2.336;2023-06-19T00:01:38;7.68;;;2.90;;
53072;SDS011;38955;48.916;2.336;2023-06-19T00:03:40;4.97;;;3.10;;
53072;SDS011;38955;48.916;2.336;2023-06-19T00:05:42;6.65;;;3.17;;
53072;SDS011;38955;48.916;2.336;2023-06-19T00:07:44;4.53;;;3.17;;
53072;SDS011;38955;48.916;2.336;2023-06-19T00:09:47;4.68;;;2.88;;
53072;SDS011;38955;48.916;2.336;2023-06-19T00:11:50;4.82;;;2.80;;
53072;SDS011;38955;48.916;2.336;2023-06-19T00:13:52;3.25;;;2.67;;
53072;SDS011;38955;48.916;2.336;2023-06-19T00:15:54;5.13;;;2.95;;
53072;SDS011;38955;48.916;2.336;2023-06-19T00:18:01;4.35;;;3.50;;
53072;SDS011;38955;48.916;2.336;2023-06-19T00:20:04;5.95;;;3.28;;
53072;SDS011;38955;48.916;2.336;2023-06-19T00:22:07;8.40;;;3.00;;
53072;SDS011;38955;48.916;2.336;2023-06-19T00:24:09;5.13;;;3.70;;
53072;SDS011;38955;48.916;2.336;2023-06-19T00:26:12;6.60;;;3.10;;
53072;SDS011;38955;48.916;2.336;2023-06-19T00:28:17;7.22;;;3.90;;
53072;SDS011;38955;48.916;2.336;2023-06-19T00:30:21;5.55;;;3.55;;
53072;SDS011;38955;48.916;2.336;2023-06-19T00:32:24;4.28;;;3.03;;
53072;SDS011;38955;48.916;2.336;2023-06-19T00:34:28;9.55;;;3.38;;
53072;SDS011;38955;48.916;2.336;2023-06-19T00:38:32;7.95;;;3.25;;
53072;SDS011;38955;48.916;2.336;2023-06-19T00:40:34;5.03;;;3.33;;
53072;SDS011;38955;48.916;2.336;2023-06-19T00:42:37;11.40;;;4.30;;
53072;SDS011;38955;48.916;2.336;2023-06-19T00:44:41;8.18;;;3.50;;
53072;SDS011;38955;48.916;2.336;2023-06-19T00:46:43;6.45;;;3.60;;
53072;SDS011;38955;48.916;2.336;2023-06-19T00:48:45;13.52;;;3.70;;
53072;SDS011;38955;48.916;2.336;2023-06-19T00:50:47;6.15;;;3.92;;
53072;SDS011;38955;48.916;2.336;2023-06-19T00:52:51;7.60;;;3.90;;
53072;SDS011;38955;48.916;2.336;2023-06-19T00:54:53;11.38;;;3.65;;
53072;SDS011;38955;48.916;2.336;2023-06-19T00:56:55;8.25;;;3.95;;
53072;SDS011;38955;48.916;2.336;2023-06-19T00:58:58;5.10;;;3.95;;
53072;SDS011;38955;48.916;2.336;2023-06-19T01:01:01;7.40;;;4.10;;
53072;SDS011;38955;48.916;2.336;2023-06-19T01:03:09;6.72;;;3.90;;
53072;SDS011;38955;48.916;2.336;2023-06-19T01:05:12;7.55;;;3.85;;
53072;SDS011;38955;48.916;2.336;2023-06-19T01:07:15;9.77;;;4.20;;
53072;SDS011;38955;48.916;2.336;2023-06-19T01:09:23;9.48;;;4.43;;
53072;SDS011;38955;48.916;2.336;2023-06-19T01:11:32;8.40;;;3.45;;
53072;SDS011;38955;48.916;2.336;2023-06-19T01:13:40;7.28;;;4.40;;
53072;SDS011;38955;48.916;2.336;2023-06-19T01:15:46;7.82;;;4.15;;
53072;SDS011;38955;48.916;2.336;2023-06-19T01:17:50;8.07;;;4.38;;
53072;SDS011;38955;48.916;2.336;2023-06-19T01:19:53;8.65;;;4.68;;
53072;SDS011;38955;48.916;2.336;2023-06-19T01:21:55;7.78;;;4.35;;
53072;SDS011;38955;48.916;2.336;2023-06-19T01:23:58;10.65;;;4.93;;
53072;SDS011;38955;48.916;2.336;2023-06-19T01:26:00;8.80;;;5.55;;
53072;SDS011;38955;48.916;2.336;2023-06-19T01:28:02;7.97;;;4.63;;
53072;SDS011;38955;48.916;2.336;2023-06-19T01:30:07;8.60;;;4.90;;
53072;SDS011;38955;48.916;2.336;2023-06-19T01:34:17;7.25;;;5.07;;
53072;SDS011;38955;48.916;2.336;2023-06-19T01:38:25;6.95;;;4.30;;
53072;SDS011;38955;48.916;2.336;2023-06-19T01:42:33;6.80;;;4.85;;
53072;SDS011;38955;48.916;2.336;2023-06-19T01:44:37;6.90;;;4.25;;
53072;SDS011;38955;48.916;2.336;2023-06-19T01:46:39;7.63;;;4.40;;
53072;SDS011;38955;48.916;2.336;2023-06-19T01:48:42;9.98;;;4.38;;
53072;SDS011;38955;48.916;2.336;2023-06-19T01:50:45;7.65;;;5.10;;
53072;SDS011;38955;48.916;2.336;2023-06-19T01:52:47;15.63;;;5.35;;
53072;SDS011;38955;48.916;2.336;2023-06-19T01:54:49;6.43;;;4.38;;
53072;SDS011;38955;48.916;2.336;2023-06-19T01:56:53;9.02;;;4.45;;
53072;SDS011;38955;48.916;2.336;2023-06-19T01:58:55;8.80;;;5.45;;
53072;SDS011;38955;48.916;2.336;2023-06-19T02:00:57;9.27;;;4.60;;
53072;SDS011;38955;48.916;2.336;2023-06-19T02:02:59;8.82;;;5.50;;
53072;SDS011;38955;48.916;2.336;2023-06-19T02:05:01;9.73;;;5.03;;
53072;SDS011;38955;48.916;2.336;2023-06-19T02:07:04;12.95;;;5.70;;
53072;SDS011;38955;48.916;2.336;2023-06-19T02:09:06;10.35;;;5.95;;
53072;SDS011;38955;48.916;2.336;2023-06-19T02:11:09;8.35;;;5.72;;
53072;SDS011;38955;48.916;2.336;2023-06-19T02:13:12;9.82;;;6.68;;
53072;SDS011;38955;48.916;2.336;2023-06-19T02:15:15;9.30;;;5.95;;
53072;SDS011;38955;48.916;2.336;2023-06-19T02:17:17;10.50;;;5.50;;
53072;SDS011;38955;48.916;2.336;2023-06-19T02:19:19;9.57;;;6.65;;
53072;SDS011;38955;48.916;2.336;2023-06-19T02:21:21;16.13;;;5.95;;
53072;SDS011;38955;48.916;2.336;2023-06-19T02:23:23;14.07;;;5.05;;
53072;SDS011;38955;48.916;2.336;2023-06-19T02:25:26;13.32;;;6.03;;
53072;SDS011;38955;48.916;2.336;2023-06-19T02:27:28;10.10;;;5.60;;
53072;SDS011;38955;48.916;2.336;2023-06-19T02:29:31;6.15;;;4.93;;
53072;SDS011;38955;48.916;2.336;2023-06-19T02:31:35;6.63;;;5.03;;
53072;SDS011;38955;48.916;2.336;2023-06-19T02:33:37;13.20;;;6.00;;
53072;SDS011;38955;48.916;2.336;2023-06-19T02:35:39;11.50;;;5.63;;
53072;SDS011;38955;48.916;2.336;2023-06-19T02:37:43;12.18;;;5.75;;
53072;SDS011;38955;48.916;2.336;2023-06-19T02:41:49;11.00;;;5.13;;
53072;SDS011;38955;48.916;2.336;2023-06-19T02:43:51;8.23;;;5.63;;
53072;SDS011;38955;48.916;2.336;2023-06-19T02:45:55;9.25;;;5.50;;
53072;SDS011;38955;48.916;2.336;2023-06-19T02:47:57;9.55;;;5.88;;
53072;SDS011;38955;48.916;2.336;2023-06-19T02:50:01;12.20;;;5.50;;
53072;SDS011;38955;48.916;2.336;2023-06-19T02:52:05;11.35;;;5.45;;
53072;SDS011;38955;48.916;2.336;2023-06-19T02:54:08;8.40;;;5.72;;
53072;SDS011;38955;48.916;2.336;2023-06-19T02:56:10;8.65;;;6.00;;
53072;SDS011;38955;48.916;2.336;2023-06-19T02:58:13;8.15;;;5.25;;
53072;SDS011;38955;48.916;2.336;2023-06-19T03:00:15;11.63;;;6.40;;
53072;SDS011;38955;48.916;2.336;2023-06-19T03:02:19;10.10;;;5.72;;
53072;SDS011;38955;48.916;2.336;2023-06-19T03:04:22;12.38;;;6.65;;
53072;SDS011;38955;48.916;2.336;2023-06-19T03:06:28;9.80;;;6.57;;
53072;SDS011;38955;48.916;2.336;2023-06-19T03:08:30;10.23;;;5.93;;
53072;SDS011;38955;48.916;2.336;2023-06-19T03:10:32;9.02;;;6.32;;
53072;SDS011;38955;48.916;2.336;2023-06-19T03:12:34;9.88;;;6.07;;
53072;SDS011;38955;48.916;2.336;2023-06-19T03:14:36;10.45;;;6.68;;
53072;SDS011;38955;48.916;2.336;2023-06-19T03:16:39;12.60;;;6.40;;
53072;SDS011;38955;48.916;2.336;2023-06-19T03:18:42;10.40;;;6.57;;
53072;SDS011;38955;48.916;2.336;2023-06-19T03:20:46;15.13;;;6.97;;
53072;SDS011;38955;48.916;2.336;2023-06-19T03:22:53;12.32;;;6.15;;
53072;SDS011;38955;48.916;2.336;2023-06-19T03:24:55;12.75;;;7.35;;
53072;SDS011;38955;48.916;2.336;2023-06-19T03:26:57;12.88;;;6.57;;
53072;SDS011;38955;48.916;2.336;2023-06-19T03:28:59;11.13;;;5.95;;
53072;SDS011;38955;48.916;2.336;2023-06-19T03:31:02;12.05;;;5.85;;
53072;SDS011;38955;48.916;2.336;2023-06-19T03:33:04;10.15;;;6.90;;
53072;SDS011;38955;48.916;2.336;2023-06-19T03:35:08;12.77;;;6.65;;
53072;SDS011;38955;48.916;2.336;2023-06-19T03:37:11;16.05;;;6.28;;
53072;SDS011;38955;48.916;2.336;2023-06-19T03:39:13;10.18;;;5.93;;
53072;SDS011;38955;48.916;2.336;2023-06-19T03:41:16;11.85;;;6.82;;
53072;SDS011;38955;48.916;2.336;2023-06-19T03:43:18;11.02;;;6.28;;
53072;SDS011;38955;48.916;2.336;2023-06-19T03:45:20;14.05;;;7.15;;
53072;SDS011;38955;48.916;2.336;2023-06-19T03:47:22;8.15;;;5.57;;
53072;SDS011;38955;48.916;2.336;2023-06-19T03:49:24;12.20;;;5.38;;
53072;SDS011;38955;48.916;2.336;2023-06-19T03:51:27;11.65;;;6.43;;
53072;SDS011;38955;48.916;2.336;2023-06-19T03:53:30;16.73;;;7.18;;
53072;SDS011;38955;48.916;2.336;2023-06-19T03:55:32;13.85;;;6.78;;
53072;SDS011;38955;48.916;2.336;2023-06-19T03:57:34;11.02;;;7.45;;
53072;SDS011;38955;48.916;2.336;2023-06-19T03:59:36;12.80;;;6.20;;
53072;SDS011;38955;48.916;2.336;2023-06-19T04:01:38;15.00;;;6.88;;
53072;SDS011;38955;48.916;2.336;2023-06-19T04:03:42;13.27;;;7.50;;
53072;SDS011;38955;48.916;2.336;2023-06-19T04:05:44;12.25;;;7.28;;
53072;SDS011;38955;48.916;2.336;2023-06-19T04:07:47;9.57;;;6.32;;
53072;SDS011;38955;48.916;2.336;2023-06-19T04:09:49;6.88;;;5.50;;
53072;SDS011;38955;48.916;2.336;2023-06-19T04:11:52;9.05;;;6.05;;
53072;SDS011;38955;48.916;2.336;2023-06-19T04:13:54;11.27;;;6.88;;
53072;SDS011;38955;48.916;2.336;2023-06-19T04:15:56;11.45;;;6.25;;
53072;SDS011;38955;48.916;2.336;2023-06-19T04:17:58;10.35;;;6.88;;
53072;SDS011;38955;48.916;2.336;2023-06-19T04:20:02;16.48;;;6.82;;
53072;SDS011;38955;48.916;2.336;2023-06-19T04:22:21;16.40;;;6.95;;
53072;SDS011;38955;48.916;2.336;2023-06-19T04:24:24;12.27;;;7.32;;
53072;SDS011;38955;48.916;2.336;2023-06-19T04:26:26;9.00;;;6.03;;
53072;SDS011;38955;48.916;2.336;2023-06-19T04:28:28;14.68;;;6.55;;
53072;SDS011;38955;48.916;2.336;2023-06-19T04:30:30;14.73;;;7.10;;
53072;SDS011;38955;48.916;2.336;2023-06-19T04:32:32;10.60;;;6.45;;
53072;SDS011;38955;48.916;2.336;2023-06-19T04:34:36;25.08;;;6.43;;
53072;SDS011;38955;48.916;2.336;2023-06-19T04:36:38;14.57;;;6.45;;
53072;SDS011;38955;48.916;2.336;2023-06-19T04:38:40;12.00;;;7.20;;
53072;SDS011;38955;48.916;2.336;2023-06-19T04:40:44;12.77;;;7.57;;
53072;SDS011;38955;48.916;2.336;2023-06-19T04:42:46;14.35;;;6.43;;
53072;SDS011;38955;48.916;2.336;2023-06-19T04:44:48;16.55;;;6.72;;
53072;SDS011;38955;48.916;2.336;2023-06-19T04:46:51;15.02;;;5.90;;
53072;SDS011;38955;48.916;2.336;2023-06-19T04:49:02;10.52;;;6.35;;
53072;SDS011;38955;48.916;2.336;2023-06-19T04:51:05;14.82;;;6.30;;
53072;SDS011;38955;48.916;2.336;2023-06-19T04:53:07;11.35;;;7.70;;
53072;SDS011;38955;48.916;2.336;2023-06-19T04:55:09;16.55;;;7.43;;
53072;SDS011;38955;48.916;2.336;2023-06-19T04:57:13;14.38;;;6.72;;
53072;SDS011;38955;48.916;2.336;2023-06-19T04:59:15;11.00;;;7.28;;
53072;SDS011;38955;48.916;2.336;2023-06-19T05:01:19;11.98;;;6.85;;
53072;SDS011;38955;48.916;2.336;2023-06-19T05:03:27;9.10;;;6.03;;
53072;SDS011;38955;48.916;2.336;2023-06-19T05:05:29;9.00;;;6.10;;
53072;SDS011;38955;48.916;2.336;2023-06-19T05:07:31;20.42;;;7.68;;
53072;SDS011;38955;48.916;2.336;2023-06-19T05:09:33;12.60;;;7.45;;
53072;SDS011;38955;48.916;2.336;2023-06-19T05:11:35;12.43;;;6.20;;
53072;SDS011;38955;48.916;2.336;2023-06-19T05:13:39;13.25;;;6.68;;
53072;SDS011;38955;48.916;2.336;2023-06-19T05:15:41;11.02;;;6.78;;
53072;SDS011;38955;48.916;2.336;2023-06-19T05:17:43;8.40;;;6.57;;
53072;SDS011;38955;48.916;2.336;2023-06-19T05:19:48;9.88;;;7.03;;
53072;SDS011;38955;48.916;2.336;2023-06-19T05:21:50;12.85;;;7.30;;
53072;SDS011;38955;48.916;2.336;2023-06-19T05:23:53;14.23;;;8.00;;
53072;SDS011;38955;48.916;2.336;2023-06-19T05:25:55;13.65;;;6.65;;
53072;SDS011;38955;48.916;2.336;2023-06-19T05:27:57;8.07;;;6.57;;
53072;SDS011;38955;48.916;2.336;2023-06-19T05:30:00;13.02;;;7.43;;
53072;SDS011;38955;48.916;2.336;2023-06-19T05:32:02;13.43;;;7.35;;
53072;SDS011;38955;48.916;2.336;2023-06-19T05:34:05;9.23;;;6.80;;
53072;SDS011;38955;48.916;2.336;2023-06-19T05:36:07;11.60;;;6.90;;
53072;SDS011;38955;48.916;2.336;2023-06-19T05:38:09;11.93;;;7.32;;
53072;SDS011;38955;48.916;2.336;2023-06-19T05:40:11;12.27;;;7.22;;
53072;SDS011;38955;48.916;2.336;2023-06-19T05:42:14;13.93;;;6.90;;
53072;SDS011;38955;48.916;2.336;2023-06-19T05:44:16;11.70;;;7.82;;
53072;SDS011;38955;48.916;2.336;2023-06-19T05:46:19;12.25;;;7.90;;
53072;SDS011;38955;48.916;2.336;2023-06-19T05:48:22;14.98;;;8.68;;
53072;SDS011;38955;48.916;2.336;2023-06-19T05:50:24;14.00;;;8.57;;
53072;SDS011;38955;48.916;2.336;2023-06-19T05:52:26;11.45;;;7.40;;
53072;SDS011;38955;48.916;2.336;2023-06-19T05:54:28;16.15;;;8.32;;
53072;SDS011;38955;48.916;2.336;2023-06-19T05:56:30;12.75;;;8.80;;
53072;SDS011;38955;48.916;2.336;2023-06-19T05:58:34;16.23;;;9.27;;
53072;SDS011;38955;48.916;2.336;2023-06-19T06:00:36;21.15;;;8.82;;
53072;SDS011;38955;48.916;2.336;2023-06-19T06:02:40;15.10;;;7.82;;
53072;SDS011;38955;48.916;2.336;2023-06-19T06:04:42;12.43;;;7.35;;
53072;SDS011;38955;48.916;2.336;2023-06-19T06:06:44;18.70;;;8.30;;
53072;SDS011;38955;48.916;2.336;2023-06-19T06:08:46;9.68;;;7.30;;
53072;SDS011;38955;48.916;2.336;2023-06-19T06:10:48;16.55;;;7.72;;
53072;SDS011;38955;48.916;2.336;2023-06-19T06:12:50;14.27;;;7.70;;
53072;SDS011;38955;48.916;2.336;2023-06-19T06:14:52;12.52;;;6.78;;
53072;SDS011;38955;48.916;2.336;2023-06-19T06:16:55;13.52;;;7.55;;
53072;SDS011;38955;48.916;2.336;2023-06-19T06:18:58;7.65;;;5.30;;
53072;SDS011;38955;48.916;2.336;2023-06-19T06:21:00;7.78;;;5.60;;
53072;SDS011;38955;48.916;2.336;2023-06-19T06:23:04;12.35;;;5.57;;
53072;SDS011;38955;48.916;2.336;2023-06-19T06:25:06;10.70;;;6.22;;
53072;SDS011;38955;48.916;2.336;2023-06-19T06:27:13;9.27;;;6.47;;
53072;SDS011;38955;48.916;2.336;2023-06-19T06:29:15;9.50;;;5.45;;
53072;SDS011;38955;48.916;2.336;2023-06-19T06:31:17;12.25;;;6.80;;
53072;SDS011;38955;48.916;2.336;2023-06-19T06:33:19;15.20;;;6.97;;
53072;SDS011;38955;48.916;2.336;2023-06-19T06:35:22;12.75;;;7.65;;
53072;SDS011;38955;48.916;2.336;2023-06-19T06:37:24;13.70;;;7.30;;
53072;SDS011;38955;48.916;2.336;2023-06-19T06:39:27;14.85;;;6.97;;
53072;SDS011;38955;48.916;2.336;2023-06-19T06:41:29;12.15;;;6.53;;
53072;SDS011;38955;48.916;2.336;2023-06-19T06:43:31;9.13;;;6.57;;
53072;SDS011;38955;48.916;2.336;2023-06-19T06:45:33;14.70;;;6.50;;
53072;SDS011;38955;48.916;2.336;2023-06-19T06:47:40;15.35;;;6.50;;
53072;SDS011;38955;48.916;2.336;2023-06-19T06:49:42;12.35;;;6.15;;
53072;SDS011;38955;48.916;2.336;2023-06-19T06:51:46;10.75;;;6.50;;
53072;SDS011;38955;48.916;2.336;2023-06-19T06:53:49;9.70;;;6.68;;
53072;SDS011;38955;48.916;2.336;2023-06-19T06:55:52;17.75;;;7.40;;
53072;SDS011;38955;48.916;2.336;2023-06-19T06:57:54;15.98;;;8.27;;
53072;SDS011;38955;48.916;2.336;2023-06-19T06:59:56;16.13;;;7.85;;
53072;SDS011;38955;48.916;2.336;2023-06-19T07:01:58;14.13;;;7.25;;
53072;SDS011;38955;48.916;2.336;2023-06-19T07:04:00;10.57;;;7.95;;
53072;SDS011;38955;48.916;2.336;2023-06-19T07:06:02;26.80;;;7.60;;
53072;SDS011;38955;48.916;2.336;2023-06-19T07:08:06;12.77;;;7.03;;
53072;SDS011;38955;48.916;2.336;2023-06-19T07:10:08;13.68;;;7.90;;
53072;SDS011;38955;48.916;2.336;2023-06-19T07:12:11;15.60;;;7.30;;
53072;SDS011;38955;48.916;2.336;2023-06-19T07:14:13;11.25;;;7.40;;
53072;SDS011;38955;48.916;2.336;2023-06-19T07:16:15;12.80;;;8.10;;
53072;SDS011;38955;48.916;2.336;2023-06-19T07:18:17;11.77;;;7.20;;
53072;SDS011;38955;48.916;2.336;2023-06-19T07:20:19;13.85;;;6.82;;
53072;SDS011;38955;48.916;2.336;2023-06-19T07:22:22;10.35;;;6.72;;
53072;SDS011;38955;48.916;2.336;2023-06-19T07:24:25;12.70;;;6.70;;
53072;SDS011;38955;48.916;2.336;2023-06-19T07:26:27;15.68;;;8.45;;
53072;SDS011;38955;48.916;2.336;2023-06-19T07:28:30;15.93;;;8.45;;
53072;SDS011;38955;48.916;2.336;2023-06-19T07:30:32;14.55;;;8.30;;
53072;SDS011;38955;48.916;2.336;2023-06-19T07:32:34;14.82;;;8.13;;
53072;SDS011;38955;48.916;2.336;2023-06-19T07:34:36;10.38;;;7.05;;
53072;SDS011;38955;48.916;2.336;2023-06-19T07:36:38;13.30;;;7.90;;
53072;SDS011;38955;48.916;2.336;2023-06-19T07:38:41;12.25;;;7.75;;
53072;SDS011;38955;48.916;2.336;2023-06-19T07:40:45;14.65;;;8.52;;
53072;SDS011;38955;48.916;2.336;2023-06-19T07:42:47;19.80;;;8.15;;
53072;SDS011;38955;48.916;2.336;2023-06-19T07:44:49;13.93;;;8.02;;
53072;SDS011;38955;48.916;2.336;2023-06-19T07:46:51;17.38;;;7.72;;
53072;SDS011;38955;48.916;2.336;2023-06-19T07:48:53;10.77;;;7.43;;
53072;SDS011;38955;48.916;2.336;2023-06-19T07:50:55;15.98;;;8.30;;
53072;SDS011;38955;48.916;2.336;2023-06-19T07:52:58;16.35;;;8.57;;
53072;SDS011;38955;48.916;2.336;2023-06-19T07:55:00;18.33;;;8.82;;
53072;SDS011;38955;48.916;2.336;2023-06-19T07:57:03;17.73;;;8.68;;
53072;SDS011;38955;48.916;2.336;2023-06-19T07:59:06;18.77;;;8.45;;
53072;SDS011;38955;48.916;2.336;2023-06-19T08:01:09;18.88;;;8.68;;
53072;SDS011;38955;48.916;2.336;2023-06-19T08:03:11;10.18;;;7.18;;
53072;SDS011;38955;48.916;2.336;2023-06-19T08:05:14;12.75;;;7.28;;
53072;SDS011;38955;48.916;2.336;2023-06-19T08:07:16;16.02;;;8.07;;
53072;SDS011;38955;48.916;2.336;2023-06-19T08:09:18;12.20;;;7.80;;
53072;SDS011;38955;48.916;2.336;2023-06-19T08:11:20;14.07;;;7.80;;
53072;SDS011;38955;48.916;2.336;2023-06-19T08:13:24;14.30;;;8.85;;
53072;SDS011;38955;48.916;2.336;2023-06-19T08:15:26;14.57;;;7.38;;
53072;SDS011;38955;48.916;2.336;2023-06-19T08:17:28;15.45;;;9.25;;
53072;SDS011;38955;48.916;2.336;2023-06-19T08:19:30;14.70;;;7.75;;
53072;SDS011;38955;48.916;2.336;2023-06-19T08:21:32;14.23;;;8.45;;
53072;SDS011;38955;48.916;2.336;2023-06-19T08:23:34;15.43;;;9.20;;
53072;SDS011;38955;48.916;2.336;2023-06-19T08:25:37;14.23;;;8.75;;
53072;SDS011;38955;48.916;2.336;2023-06-19T08:27:39;15.85;;;8.93;;
53072;SDS011;38955;48.916;2.336;2023-06-19T08:29:42;12.75;;;7.90;;
53072;SDS011;38955;48.916;2.336;2023-06-19T08:31:44;14.10;;;9.10;;
53072;SDS011;38955;48.916;2.336;2023-06-19T08:33:51;14.98;;;7.53;;
53072;SDS011;38955;48.916;2.336;2023-06-19T08:35:55;16.52;;;9.00;;
53072;SDS011;38955;48.916;2.336;2023-06-19T08:37:57;10.27;;;7.65;;
53072;SDS011;38955;48.916;2.336;2023-06-19T08:39:59;15.75;;;7.72;;
53072;SDS011;38955;48.916;2.336;2023-06-19T08:42:01;14.32;;;7.88;;
53072;SDS011;38955;48.916;2.336;2023-06-19T08:44:04;12.93;;;8.40;;
53072;SDS011;38955;48.916;2.336;2023-06-19T08:46:09;13.32;;;9.45;;
53072;SDS011;38955;48.916;2.336;2023-06-19T08:48:13;11.88;;;7.75;;
53072;SDS011;38955;48.916;2.336;2023-06-19T08:50:15;14.15;;;8.35;;
53072;SDS011;38955;48.916;2.336;2023-06-19T08:52:17;19.70;;;8.25;;
53072;SDS011;38955;48.916;2.336;2023-06-19T08:54:20;14.90;;;8.43;;
53072;SDS011;38955;48.916;2.336;2023-06-19T08:56:22;13.20;;;7.50;;
53072;SDS011;38955;48.916;2.336;2023-06-19T08:58:25;12.77;;;7.45;;
53072;SDS011;38955;48.916;2.336;2023-06-19T09:00:28;12.15;;;7.78;;
53072;SDS011;38955;48.916;2.336;2023-06-19T09:02:43;14.15;;;7.82;;
53072;SDS011;38955;48.916;2.336;2023-06-19T09:05:08;10.25;;;6.65;;
53072;SDS011;38955;48.916;2.336;2023-06-19T09:07:15;14.95;;;7.50;;
53072;SDS011;38955;48.916;2.336;2023-06-19T09:09:17;9.27;;;7.57;;
53072;SDS011;38955;48.916;2.336;2023-06-19T09:11:22;10.38;;;7.25;;
53072;SDS011;38955;48.916;2.336;2023-06-19T09:13:24;10.20;;;7.13;;
53072;SDS011;38955;48.916;2.336;2023-06-19T09:15:27;12.32;;;7.82;;
53072;SDS011;38955;48.916;2.336;2023-06-19T09:17:30;11.75;;;7.40;;
53072;SDS011;38955;48.916;2.336;2023-06-19T09:19:35;11.35;;;6.28;;
53072;SDS011;38955;48.916;2.336;2023-06-19T09:21:37;13.23;;;8.68;;
53072;SDS011;38955;48.916;2.336;2023-06-19T09:23:40;13.00;;;7.30;;
53072;SDS011;38955;48.916;2.336;2023-06-19T09:25:45;13.35;;;7.00;;
53072;SDS011;38955;48.916;2.336;2023-06-19T09:27:48;9.73;;;6.32;;
53072;SDS011;38955;48.916;2.336;2023-06-19T09:29:50;10.70;;;6.32;;
53072;SDS011;38955;48.916;2.336;2023-06-19T09:31:52;13.90;;;6.53;;
53072;SDS011;38955;48.916;2.336;2023-06-19T09:36:01;8.45;;;5.95;;
53072;SDS011;38955;48.916;2.336;2023-06-19T09:38:04;9.68;;;6.32;;
53072;SDS011;38955;48.916;2.336;2023-06-19T09:40:07;10.52;;;6.53;;
53072;SDS011;38955;48.916;2.336;2023-06-19T09:42:12;11.82;;;6.35;;
53072;SDS011;38955;48.916;2.336;2023-06-19T09:44:16;9.70;;;6.47;;
53072;SDS011;38955;48.916;2.336;2023-06-19T09:46:24;9.85;;;6.20;;
53072;SDS011;38955;48.916;2.336;2023-06-19T09:50:32;7.47;;;5.72;;
53072;SDS011;38955;48.916;2.336;2023-06-19T09:52:37;8.63;;;5.43;;
53072;SDS011;38955;48.916;2.336;2023-06-19T09:54:41;8.65;;;5.65;;
53072;SDS011;38955;48.916;2.336;2023-06-19T09:56:45;10.75;;;6.10;;
53072;SDS011;38955;48.916;2.336;2023-06-19T09:58:52;6.75;;;5.00;;
53072;SDS011;38955;48.916;2.336;2023-06-19T10:00:57;10.05;;;5.43;;
53072;SDS011;38955;48.916;2.336;2023-06-19T10:03:01;8.88;;;4.70;;
53072;SDS011;38955;48.916;2.336;2023-06-19T10:07:15;9.63;;;5.63;;
53072;SDS011;38955;48.916;2.336;2023-06-19T10:09:20;8.15;;;4.72;;
53072;SDS011;38955;48.916;2.336;2023-06-19T10:11:24;11.25;;;4.82;;
53072;SDS011;38955;48.916;2.336;2023-06-19T10:15:34;6.60;;;4.80;;
53072;SDS011;38955;48.916;2.336;2023-06-19T10:17:43;9.55;;;5.53;;
53072;SDS011;38955;48.916;2.336;2023-06-19T10:19:50;7.22;;;4.88;;
53072;SDS011;38955;48.916;2.336;2023-06-19T10:21:54;12.07;;;5.15;;
53072;SDS011;38955;48.916;2.336;2023-06-19T10:23:57;7.45;;;4.50;;
53072;SDS011;38955;48.916;2.336;2023-06-19T10:26:01;6.07;;;4.20;;
53072;SDS011;38955;48.916;2.336;2023-06-19T10:28:04;5.60;;;4.30;;
53072;SDS011;38955;48.916;2.336;2023-06-19T10:30:18;5.97;;;3.97;;
53072;SDS011;38955;48.916;2.336;2023-06-19T10:32:21;4.85;;;3.65;;
53072;SDS011;38955;48.916;2.336;2023-06-19T10:34:32;5.55;;;3.67;;
53072;SDS011;38955;48.916;2.336;2023-06-19T10:36:35;7.32;;;3.90;;
53072;SDS011;38955;48.916;2.336;2023-06-19T10:38:36;5.43;;;3.95;;
53072;SDS011;38955;48.916;2.336;2023-06-19T10:40:39;7.07;;;3.80;;
53072;SDS011;38955;48.916;2.336;2023-06-19T10:42:42;6.38;;;4.20;;
53072;SDS011;38955;48.916;2.336;2023-06-19T10:44:44;4.50;;;3.53;;
53072;SDS011;38955;48.916;2.336;2023-06-19T10:46:46;5.78;;;3.95;;
53072;SDS011;38955;48.916;2.336;2023-06-19T10:48:49;7.55;;;3.78;;
53072;SDS011;38955;48.916;2.336;2023-06-19T10:50:51;11.75;;;4.38;;
53072;SDS011;38955;48.916;2.336;2023-06-19T10:52:54;10.20;;;4.63;;
53072;SDS011;38955;48.916;2.336;2023-06-19T10:54:56;9.80;;;4.88;;
53072;SDS011;38955;48.916;2.336;2023-06-19T10:56:58;6.88;;;4.45;;
53072;SDS011;38955;48.916;2.336;2023-06-19T10:59:07;6.65;;;4.22;;
53072;SDS011;38955;48.916;2.336;2023-06-19T11:01:11;8.32;;;3.88;;
53072;SDS011;38955;48.916;2.336;2023-06-19T11:03:13;7.55;;;4.07;;
53072;SDS011;38955;48.916;2.336;2023-06-19T11:05:15;8.75;;;3.90;;
53072;SDS011;38955;48.916;2.336;2023-06-19T11:07:17;6.13;;;3.85;;
53072;SDS011;38955;48.916;2.336;2023-06-19T11:09:19;5.82;;;4.28;;
53072;SDS011;38955;48.916;2.336;2023-06-19T11:11:22;8.68;;;4.22;;
53072;SDS011;38955;48.916;2.336;2023-06-19T11:13:27;6.85;;;4.32;;
53072;SDS011;38955;48.916;2.336;2023-06-19T11:15:31;5.78;;;3.95;;
53072;SDS011;38955;48.916;2.336;2023-06-19T11:19:36;8.07;;;4.18;;
53072;SDS011;38955;48.916;2.336;2023-06-19T11:21:44;5.30;;;4.05;;
53072;SDS011;38955;48.916;2.336;2023-06-19T11:23:47;8.82;;;4.10;;
53072;SDS011;38955;48.916;2.336;2023-06-19T11:25:50;8.80;;;3.90;;
53072;SDS011;38955;48.916;2.336;2023-06-19T11:27:52;4.60;;;3.80;;
53072;SDS011;38955;48.916;2.336;2023-06-19T11:29:56;7.82;;;3.67;;
53072;SDS011;38955;48.916;2.336;2023-06-19T11:32:08;7.70;;;4.63;;
53072;SDS011;38955;48.916;2.336;2023-06-19T11:34:12;5.97;;;3.60;;
53072;SDS011;38955;48.916;2.336;2023-06-19T11:36:14;9.40;;;4.63;;
53072;SDS011;38955;48.916;2.336;2023-06-19T11:38:19;6.13;;;4.07;;
53072;SDS011;38955;48.916;2.336;2023-06-19T11:40:23;9.32;;;4.47;;
53072;SDS011;38955;48.916;2.336;2023-06-19T11:42:28;7.07;;;4.63;;
53072;SDS011;38955;48.916;2.336;2023-06-19T11:44:30;10.05;;;5.00;;
53072;SDS011;38955;48.916;2.336;2023-06-19T11:46:33;8.02;;;4.88;;
53072;SDS011;38955;48.916;2.336;2023-06-19T11:48:37;5.85;;;4.30;;
53072;SDS011;38955;48.916;2.336;2023-06-19T11:50:39;10.43;;;4.85;;
53072;SDS011;38955;48.916;2.336;2023-06-19T11:52:42;12.02;;;5.25;;
53072;SDS011;38955;48.916;2.336;2023-06-19T11:54:48;8.55;;;5.10;;
53072;SDS011;38955;48.916;2.336;2023-06-19T11:56:50;9.77;;;4.53;;
53072;SDS011;38955;48.916;2.336;2023-06-19T11:58:52;8.05;;;4.85;;
53072;SDS011;38955;48.916;2.336;2023-06-19T12:00:54;5.13;;;4.13;;
53072;SDS011;38955;48.916;2.336;2023-06-19T12:02:57;8.98;;;5.25;;
53072;SDS011;38955;48.916;2.336;2023-06-19T12:05:01;8.48;;;5.03;;
53072;SDS011;38955;48.916;2.336;2023-06-19T12:07:04;9.05;;;4.80;;
53072;SDS011;38955;48.916;2.336;2023-06-19T12:09:06;9.32;;;4.38;;
53072;SDS011;38955;48.916;2.336;2023-06-19T12:11:08;9.75;;;4.90;;
53072;SDS011;38955;48.916;2.336;2023-06-19T12:13:11;9.25;;;5.30;;
53072;SDS011;38955;48.916;2.336;2023-06-19T12:15:13;13.02;;;7.65;;
53072;SDS011;38955;48.916;2.336;2023-06-19T12:17:15;11.95;;;6.05;;
53072;SDS011;38955;48.916;2.336;2023-06-19T12:19:18;9.18;;;4.78;;
53072;SDS011;38955;48.916;2.336;2023-06-19T12:21:23;5.68;;;5.03;;
53072;SDS011;38955;48.916;2.336;2023-06-19T12:23:36;11.85;;;5.10;;
53072;SDS011;38955;48.916;2.336;2023-06-19T12:25:38;7.30;;;5.55;;
53072;SDS011;38955;48.916;2.336;2023-06-19T12:27:40;8.60;;;5.07;;
53072;SDS011;38955;48.916;2.336;2023-06-19T12:29:42;20.88;;;6.25;;
53072;SDS011;38955;48.916;2.336;2023-06-19T12:31:44;11.00;;;5.05;;
53072;SDS011;38955;48.916;2.336;2023-06-19T12:33:46;13.55;;;5.00;;
53072;SDS011;38955;48.916;2.336;2023-06-19T12:35:50;12.18;;;4.70;;
53072;SDS011;38955;48.916;2.336;2023-06-19T12:37:53;15.18;;;5.85;;